Time;durP1;ratioP1;P1;durP2;ratioP2;P2;SDS_P1;SDS_P2;PMS_P1;PMS_P2;Temp;Humidity;BMP_temperature;BMP_pressure;BME280_temperature;BME280_humidity;BME280_pressure;Samples;Min_cycle;Max_cycle;Signal;HPM_P1;HPM_P2
2022/08/05 00:00:12;;;;;;;7.13;2.90;;;;;;;;;;5051715;28;20229;-16
2022/08/05 00:02:44;;;;;;;11.40;3.25;;;;;;;;;;5051211;28;20228;-16
2022/08/05 00:05:17;;;;;;;4.38;2.30;;;;;;;;;;5047624;28;20313;-16
2022/08/05 00:08:04;;;;;;;6.75;2.80;;;;;;;;;;5051086;28;20283;-16
2022/08/05 00:10:52;;;;;;;6.47;2.95;;;;;;;;;;5049431;28;20965;-16
2022/08/05 00:13:19;;;;;;;7.13;2.90;;;;;;;;;;5047361;28;20248;-16
2022/08/05 00:16:05;;;;;;;5.63;2.70;;;;;;;;;;5050849;28;20661;-16
2022/08/05 00:18:36;;;;;;;4.63;2.45;;;;;;;;;;5048074;28;20234;-16
2022/08/05 00:21:04;;;;;;;4.68;3.00;;;;;;;;;;5045340;28;20312;-17
2022/08/05 00:23:34;;;;;;;7.00;2.95;;;;;;;;;;5051228;28;20242;-16
2022/08/05 00:26:20;;;;;;;6.25;3.05;;;;;;;;;;5051377;28;21157;-16
2022/08/05 00:28:48;;;;;;;5.57;2.85;;;;;;;;;;5061807;28;20355;-16
2022/08/05 00:31:16;;;;;;;6.05;3.47;;;;;;;;;;5063055;28;20797;-16
2022/08/05 00:34:05;;;;;;;4.55;2.83;;;;;;;;;;5070662;28;20707;-16
2022/08/05 00:36:53;;;;;;;6.45;3.90;;;;;;;;;;5045253;28;20287;-16
2022/08/05 00:39:41;;;;;;;4.65;2.92;;;;;;;;;;5071407;28;20688;-16
2022/08/05 00:42:30;;;;;;;5.57;3.10;;;;;;;;;;5070028;28;20235;-16
2022/08/05 00:44:59;;;;;;;5.65;2.80;;;;;;;;;;5071149;28;20229;-16
2022/08/05 00:47:26;;;;;;;5.50;2.90;;;;;;;;;;5061374;28;21047;-16
2022/08/05 00:50:15;;;;;;;5.28;3.00;;;;;;;;;;5071413;28;20233;-17
2022/08/05 00:52:43;;;;;;;5.13;2.90;;;;;;;;;;5065305;28;20277;-16
2022/08/05 00:55:13;;;;;;;7.10;2.80;;;;;;;;;;5068755;28;20699;-16
2022/08/05 00:57:41;;;;;;;7.32;3.42;;;;;;;;;;5071106;28;20226;-16
2022/08/05 01:00:25;;;;;;;6.63;3.08;;;;;;;;;;5068094;28;20238;-16
2022/08/05 01:02:53;;;;;;;7.45;3.45;;;;;;;;;;5061617;28;20233;-16
2022/08/05 01:05:22;;;;;;;7.07;3.15;;;;;;;;;;5059056;28;20742;-16
2022/08/05 01:07:51;;;;;;;5.57;3.05;;;;;;;;;;5052649;28;20336;-16
2022/08/05 01:10:40;;;;;;;6.68;3.38;;;;;;;;;;5053725;28;20620;-16
2022/08/05 01:13:20;;;;;;;13.65;3.42;;;;;;;;;;5046331;28;20276;-16
2022/08/05 01:15:56;;;;;;;5.88;2.72;;;;;;;;;;5049073;28;20230;-16
2022/08/05 01:18:25;;;;;;;6.43;2.45;;;;;;;;;;5049730;28;20226;-16
2022/08/05 01:21:06;;;;;;;5.80;3.22;;;;;;;;;;5049410;28;20309;-16
2022/08/05 01:23:44;;;;;;;4.38;2.63;;;;;;;;;;5058659;28;20234;-16
2022/08/05 01:26:21;;;;;;;5.63;2.60;;;;;;;;;;5050486;28;20364;-16
2022/08/05 01:28:55;;;;;;;6.30;3.40;;;;;;;;;;5055047;28;20696;-16
2022/08/05 01:31:28;;;;;;;5.80;2.75;;;;;;;;;;5063040;28;20259;-16
2022/08/05 01:33:56;;;;;;;6.43;3.30;;;;;;;;;;5069411;28;20616;-16
2022/08/05 01:36:25;;;;;;;7.72;3.63;;;;;;;;;;5053158;28;20287;-17
2022/08/05 01:38:54;;;;;;;7.40;3.13;;;;;;;;;;5069007;28;20230;-17
2022/08/05 01:41:22;;;;;;;4.25;3.00;;;;;;;;;;5065796;28;20233;-17
2022/08/05 01:43:52;;;;;;;4.47;3.00;;;;;;;;;;5070041;28;20281;-17
2022/08/05 01:46:21;;;;;;;8.73;3.28;;;;;;;;;;5060415;28;20236;-17
2022/08/05 01:49:08;;;;;;;7.60;3.40;;;;;;;;;;5069287;28;20329;-18
2022/08/05 01:51:50;;;;;;;7.88;3.75;;;;;;;;;;5065957;28;20622;-17
2022/08/05 01:54:18;;;;;;;6.22;4.00;;;;;;;;;;5070013;28;20324;-17
2022/08/05 01:56:52;;;;;;;6.13;3.20;;;;;;;;;;5070696;28;20271;-17
2022/08/05 01:59:39;;;;;;;10.30;3.17;;;;;;;;;;5070600;28;20233;-17
2022/08/05 02:02:14;;;;;;;7.88;3.83;;;;;;;;;;5068842;28;20241;-17
2022/08/05 02:04:43;;;;;;;8.32;3.58;;;;;;;;;;5062240;28;20277;-17
2022/08/05 02:07:15;;;;;;;6.72;3.40;;;;;;;;;;5068747;28;20225;-17
2022/08/05 02:09:49;;;;;;;5.72;3.30;;;;;;;;;;5070057;28;20701;-17
2022/08/05 02:12:18;;;;;;;6.32;3.60;;;;;;;;;;5063595;28;20705;-17
2022/08/05 02:14:47;;;;;;;6.32;3.45;;;;;;;;;;5070010;28;20237;-18
2022/08/05 02:17:19;;;;;;;9.40;3.53;;;;;;;;;;5068850;28;21058;-17
2022/08/05 02:20:07;;;;;;;6.35;3.00;;;;;;;;;;5070404;28;20953;-17
2022/08/05 02:22:36;;;;;;;7.90;3.25;;;;;;;;;;5066950;22;20326;-14
2022/08/05 02:25:05;;;;;;;6.13;3.55;;;;;;;;;;5049819;28;20719;-14
2022/08/05 02:27:34;;;;;;;6.20;3.75;;;;;;;;;;5037105;28;20230;-14
2022/08/05 02:30:21;;;;;;;7.85;3.65;;;;;;;;;;5048555;28;20265;-14
2022/08/05 02:32:54;;;;;;;10.73;4.30;;;;;;;;;;5050609;28;20225;-14
2022/08/05 02:35:22;;;;;;;6.97;4.03;;;;;;;;;;5050339;28;20226;-14
2022/08/05 02:37:59;;;;;;;9.27;3.72;;;;;;;;;;5050548;28;20309;-14
2022/08/05 02:40:28;;;;;;;5.72;3.42;;;;;;;;;;5051109;28;20230;-14
2022/08/05 02:42:56;;;;;;;8.48;4.35;;;;;;;;;;5052180;28;20238;-14
2022/08/05 02:45:24;;;;;;;8.10;3.88;;;;;;;;;;5054684;28;20233;-14
2022/08/05 02:47:52;;;;;;;4.93;3.90;;;;;;;;;;5063789;28;20230;-14
2022/08/05 02:50:40;;;;;;;8.43;4.32;;;;;;;;;;5052297;28;20237;-14
2022/08/05 02:53:10;;;;;;;5.85;3.42;;;;;;;;;;5052448;28;20307;-14
2022/08/05 02:55:45;;;;;;;8.65;3.83;;;;;;;;;;5051728;28;20308;-14
2022/08/05 02:58:26;;;;;;;5.30;3.50;;;;;;;;;;5052502;28;20242;-14
2022/08/05 03:00:55;;;;;;;7.60;4.00;;;;;;;;;;5052105;28;20230;-14
2022/08/05 03:03:22;;;;;;;7.55;3.92;;;;;;;;;;5052165;28;20230;-14
2022/08/05 03:05:51;;;;;;;6.05;4.03;;;;;;;;;;5047074;28;20319;-14
2022/08/05 03:08:39;;;;;;;6.80;3.65;;;;;;;;;;5042490;28;20238;-14
2022/08/05 03:11:27;;;;;;;7.18;3.83;;;;;;;;;;5051892;28;20234;-14
2022/08/05 03:14:14;;;;;;;6.55;3.88;;;;;;;;;;5051930;28;20325;-14
2022/08/05 03:16:41;;;;;;;10.23;4.10;;;;;;;;;;5059400;28;20848;-14
2022/08/05 03:19:09;;;;;;;10.88;4.50;;;;;;;;;;5051774;28;21065;-14
2022/08/05 03:21:45;;;;;;;9.63;4.30;;;;;;;;;;5051009;28;20238;-14
2022/08/05 03:24:16;;;;;;;6.40;4.18;;;;;;;;;;5052280;28;20281;-14
2022/08/05 03:26:43;;;;;;;9.15;4.45;;;;;;;;;;5052282;28;20234;-14
2022/08/05 03:29:15;;;;;;;6.88;4.13;;;;;;;;;;5050332;28;20230;-14
2022/08/05 03:31:44;;;;;;;9.32;3.90;;;;;;;;;;5052923;28;20325;-14
2022/08/05 03:34:23;;;;;;;7.43;4.82;;;;;;;;;;5051171;28;20260;-14
2022/08/05 03:36:54;;;;;;;6.13;4.20;;;;;;;;;;5051736;28;20241;-14
2022/08/05 03:39:21;;;;;;;9.68;4.68;;;;;;;;;;5051165;28;20612;-14
2022/08/05 03:41:53;;;;;;;7.70;4.10;;;;;;;;;;5051810;28;20241;-14
2022/08/05 03:44:22;;;;;;;7.50;4.95;;;;;;;;;;5051121;28;20234;-15
2022/08/05 03:46:50;;;;;;;15.32;5.90;;;;;;;;;;5064484;28;20734;-14
2022/08/05 03:49:17;;;;;;;9.50;5.07;;;;;;;;;;5051685;28;21563;-14
2022/08/05 03:51:45;;;;;;;8.23;5.65;;;;;;;;;;5051358;28;20236;-14
2022/08/05 03:54:35;;;;;;;7.07;5.00;;;;;;;;;;5051768;28;20234;-14
2022/08/05 03:57:24;;;;;;;10.98;4.93;;;;;;;;;;5051846;28;20241;-14
2022/08/05 04:00:08;;;;;;;12.23;4.70;;;;;;;;;;5051516;28;21186;-14
2022/08/05 04:02:37;;;;;;;6.85;4.55;;;;;;;;;;5051383;28;20280;-14
2022/08/05 04:05:25;;;;;;;12.65;4.95;;;;;;;;;;5050692;28;20226;-14
2022/08/05 04:07:54;;;;;;;6.32;4.63;;;;;;;;;;5050893;28;20239;-14
2022/08/05 04:10:26;;;;;;;7.05;4.15;;;;;;;;;;5051077;28;20313;-14
2022/08/05 04:12:59;;;;;;;10.32;5.00;;;;;;;;;;5050987;28;20733;-14
2022/08/05 04:15:30;;;;;;;9.57;4.70;;;;;;;;;;5055059;28;20728;-14
2022/08/05 04:18:00;;;;;;;8.65;4.75;;;;;;;;;;5051882;28;20229;-16
2022/08/05 04:20:27;;;;;;;9.05;4.38;;;;;;;;;;5051336;28;20230;-14
2022/08/05 04:22:55;;;;;;;10.52;4.57;;;;;;;;;;5049817;28;20248;-14
2022/08/05 04:25:23;;;;;;;9.82;4.55;;;;;;;;;;5051139;28;20222;-14
2022/08/05 04:28:12;;;;;;;8.65;5.30;;;;;;;;;;5050852;28;20225;-14
2022/08/05 04:30:39;;;;;;;13.23;5.38;;;;;;;;;;5055708;28;20233;-14
2022/08/05 04:33:09;;;;;;;8.95;4.93;;;;;;;;;;5052007;28;20302;-14
2022/08/05 04:35:36;;;;;;;7.03;4.35;;;;;;;;;;5041688;28;20241;-14
2022/08/05 04:38:23;;;;;;;10.73;4.88;;;;;;;;;;5050853;28;20678;-14
2022/08/05 04:41:06;;;;;;;15.98;5.07;;;;;;;;;;5050911;28;20388;-14
2022/08/05 04:43:37;;;;;;;10.88;4.78;;;;;;;;;;5051018;28;20236;-14
2022/08/05 04:46:14;;;;;;;8.65;4.80;;;;;;;;;;5060035;28;20225;-14
2022/08/05 04:48:54;;;;;;;7.05;4.70;;;;;;;;;;5063308;28;20238;-14
2022/08/05 04:51:25;;;;;;;10.15;4.90;;;;;;;;;;5050852;28;21000;-14
2022/08/05 04:53:56;;;;;;;9.57;4.75;;;;;;;;;;5050717;28;20690;-14
2022/08/05 04:56:27;;;;;;;8.38;4.68;;;;;;;;;;5049155;28;20745;-14
2022/08/05 04:59:04;;;;;;;8.93;4.65;;;;;;;;;;5050552;28;20236;-14
2022/08/05 05:01:51;;;;;;;8.68;5.25;;;;;;;;;;5050438;28;20230;-14
2022/08/05 05:04:39;;;;;;;10.85;5.03;;;;;;;;;;5045390;28;20230;-14
2022/08/05 05:07:14;;;;;;;5.90;4.13;;;;;;;;;;5049666;28;20226;-14
2022/08/05 05:09:42;;;;;;;11.40;4.78;;;;;;;;;;5050501;28;20235;-14
2022/08/05 05:12:10;;;;;;;9.55;5.10;;;;;;;;;;5050303;28;20260;-14
2022/08/05 05:14:39;;;;;;;10.23;4.38;;;;;;;;;;5050501;28;20360;-14
2022/08/05 05:17:17;;;;;;;15.65;5.03;;;;;;;;;;5054643;28;20237;-14
2022/08/05 05:19:52;;;;;;;7.13;4.25;;;;;;;;;;5050011;28;20238;-14
2022/08/05 05:22:19;;;;;;;8.27;4.68;;;;;;;;;;5046398;28;20297;-14
2022/08/05 05:24:52;;;;;;;15.05;4.50;;;;;;;;;;5044996;28;20226;-14
2022/08/05 05:27:25;;;;;;;7.97;4.20;;;;;;;;;;5038126;28;20250;-14
2022/08/05 05:30:14;;;;;;;8.43;4.10;;;;;;;;;;5042877;28;20235;-14
2022/08/05 05:32:57;;;;;;;10.27;3.83;;;;;;;;;;5048044;28;20232;-14
2022/08/05 05:35:27;;;;;;;10.80;4.55;;;;;;;;;;5044868;28;20261;-14
2022/08/05 05:37:59;;;;;;;7.68;4.07;;;;;;;;;;5049632;28;20273;-14
2022/08/05 05:40:29;;;;;;;7.68;4.28;;;;;;;;;;5044013;28;20321;-14
2022/08/05 05:42:58;;;;;;;10.68;4.28;;;;;;;;;;5050000;28;20301;-14
2022/08/05 05:45:27;;;;;;;7.03;3.80;;;;;;;;;;5045993;28;20229;-14
2022/08/05 05:47:55;;;;;;;4.45;3.65;;;;;;;;;;5049413;28;20222;-14
2022/08/05 05:50:34;;;;;;;8.50;4.82;;;;;;;;;;5048768;28;20709;-14
2022/08/05 05:53:12;;;;;;;8.68;4.63;;;;;;;;;;5049541;28;20253;-14
2022/08/05 05:55:48;;;;;;;7.57;4.32;;;;;;;;;;5049575;28;20316;-14
2022/08/05 05:58:26;;;;;;;10.93;4.53;;;;;;;;;;5049660;28;20319;-14
2022/08/05 06:00:59;;;;;;;6.95;4.20;;;;;;;;;;5052259;28;20697;-14
2022/08/05 06:03:39;;;;;;;6.57;4.47;;;;;;;;;;5049632;28;20381;-14
2022/08/05 06:06:26;;;;;;;14.70;5.30;;;;;;;;;;5037953;28;20234;-14
2022/08/05 06:09:00;;;;;;;10.63;4.70;;;;;;;;;;5049709;28;20226;-14
2022/08/05 06:11:30;;;;;;;10.15;5.38;;;;;;;;;;5049681;28;20321;-14
2022/08/05 06:13:57;;;;;;;8.55;4.57;;;;;;;;;;5048838;28;20240;-14
2022/08/05 06:16:28;;;;;;;7.47;4.45;;;;;;;;;;5054085;28;20978;-14
2022/08/05 06:19:03;;;;;;;6.18;4.47;;;;;;;;;;5049171;28;20288;-14
2022/08/05 06:21:34;;;;;;;10.15;4.47;;;;;;;;;;5040886;28;20934;-14
2022/08/05 06:24:04;;;;;;;13.60;4.95;;;;;;;;;;5045896;28;20260;-14
2022/08/05 06:26:32;;;;;;;10.68;4.95;;;;;;;;;;5049582;28;20267;-14
2022/08/05 06:29:01;;;;;;;10.10;4.50;;;;;;;;;;5049640;28;20230;-14
2022/08/05 06:31:50;;;;;;;12.80;4.45;;;;;;;;;;5056462;28;20230;-14
2022/08/05 06:34:17;;;;;;;8.73;4.40;;;;;;;;;;5047999;28;20226;-14
2022/08/05 06:36:46;;;;;;;7.97;4.10;;;;;;;;;;5049307;28;20684;-14
2022/08/05 06:39:25;;;;;;;11.77;4.28;;;;;;;;;;5049253;28;20332;-14
2022/08/05 06:41:54;;;;;;;7.65;3.63;;;;;;;;;;5049212;28;20309;-14
2022/08/05 06:44:22;;;;;;;8.48;4.07;;;;;;;;;;5049261;28;20230;-14
2022/08/05 06:46:50;;;;;;;15.70;4.50;;;;;;;;;;5058029;28;20234;-14
2022/08/05 06:49:20;;;;;;;14.05;4.38;;;;;;;;;;5049119;28;20226;-14
2022/08/05 06:52:07;;;;;;;13.85;4.72;;;;;;;;;;5048678;28;20245;-14
2022/08/05 06:54:55;;;;;;;11.20;3.72;;;;;;;;;;5049919;28;20773;-15
2022/08/05 06:57:22;;;;;;;9.38;3.55;;;;;;;;;;5049057;28;20234;-15
2022/08/05 07:00:10;;;;;;;7.43;3.38;;;;;;;;;;5050340;28;20241;-15
2022/08/05 07:02:42;;;;;;;5.95;3.55;;;;;;;;;;5050882;28;20272;-15
2022/08/05 07:05:10;;;;;;;6.47;3.50;;;;;;;;;;5050356;28;20586;-14
2022/08/05 07:07:47;;;;;;;14.32;3.70;;;;;;;;;;5048639;28;20234;-14
2022/08/05 07:10:15;;;;;;;7.05;3.00;;;;;;;;;;5060988;28;20329;-15
2022/08/05 07:18:31;;;;;;;12.95;2.92;;;;;;;;;;5015339;28;20222;-15
2022/08/05 07:20:59;;;;;;;10.32;2.90;;;;;;;;;;5052106;28;20288;-15
2022/08/05 07:23:31;;;;;;;11.27;2.72;;;;;;;;;;5052399;28;20229;-14
2022/08/05 07:25:59;;;;;;;21.38;3.42;;;;;;;;;;5052684;28;20229;-14
2022/08/05 07:28:28;;;;;;;9.77;3.70;;;;;;;;;;5049280;28;20234;-14
2022/08/05 07:30:55;;;;;;;11.18;2.72;;;;;;;;;;5050955;28;20257;-15
2022/08/05 07:33:23;;;;;;;10.32;3.08;;;;;;;;;;5048779;28;20645;-15
2022/08/05 07:36:05;;;;;;;10.60;2.72;;;;;;;;;;5040261;28;21005;-15
2022/08/05 07:38:48;;;;;;;5.80;2.58;;;;;;;;;;5051996;28;20233;-15
2022/08/05 07:41:21;;;;;;;6.72;2.05;;;;;;;;;;5051241;28;20241;-15
2022/08/05 07:44:08;;;;;;;8.75;2.63;;;;;;;;;;5050180;28;20710;-14
2022/08/05 07:46:44;;;;;;;6.65;2.17;;;;;;;;;;5054951;28;20230;-15
2022/08/05 07:49:15;;;;;;;5.05;1.95;;;;;;;;;;5050606;28;20713;-15
2022/08/05 07:51:46;;;;;;;4.65;1.98;;;;;;;;;;5051047;28;20234;-15
2022/08/05 07:54:25;;;;;;;6.65;2.13;;;;;;;;;;5051780;28;20222;-15
2022/08/05 07:57:00;;;;;;;4.15;2.10;;;;;;;;;;5051609;28;20248;-15
2022/08/05 07:59:47;;;;;;;9.95;2.20;;;;;;;;;;5052310;28;20261;-15
2022/08/05 08:02:15;;;;;;;8.65;2.42;;;;;;;;;;5053148;28;20234;-14
2022/08/05 08:04:44;;;;;;;8.27;2.10;;;;;;;;;;5051177;28;20233;-15
2022/08/05 08:07:13;;;;;;;4.18;2.20;;;;;;;;;;5051173;28;20226;-14
2022/08/05 08:09:41;;;;;;;3.90;2.00;;;;;;;;;;5051669;28;20286;-15
2022/08/05 08:12:09;;;;;;;5.90;2.13;;;;;;;;;;5051745;28;20230;-14
2022/08/05 08:14:56;;;;;;;5.25;1.80;;;;;;;;;;5057708;28;20264;-14
2022/08/05 08:17:29;;;;;;;6.65;2.33;;;;;;;;;;5056836;28;20815;-14
2022/08/05 08:19:56;;;;;;;6.93;1.73;;;;;;;;;;5051722;28;20230;-14
2022/08/05 08:22:49;;;;;;;5.30;2.00;;;;;;;;;;5051164;28;20337;-14
2022/08/05 08:25:18;;;;;;;5.85;2.33;;;;;;;;;;5050988;28;21035;-14
2022/08/05 08:28:05;;;;;;;4.65;1.83;;;;;;;;;;5051823;28;20230;-14
2022/08/05 08:30:44;;;;;;;4.35;1.70;;;;;;;;;;5056921;28;20248;-14
2022/08/05 08:33:16;;;;;;;7.00;1.90;;;;;;;;;;5052087;28;20230;-14
2022/08/05 08:35:45;;;;;;;3.95;1.88;;;;;;;;;;5050524;28;20265;-14
2022/08/05 08:38:22;;;;;;;4.68;2.00;;;;;;;;;;5051142;28;20241;-14
2022/08/05 08:41:04;;;;;;;3.97;1.70;;;;;;;;;;5051179;28;20253;-14
2022/08/05 08:43:33;;;;;;;5.40;1.88;;;;;;;;;;5051362;28;20312;-14
2022/08/05 08:46:20;;;;;;;4.15;1.70;;;;;;;;;;5059356;28;20229;-14
2022/08/05 08:48:48;;;;;;;5.95;2.08;;;;;;;;;;5051100;28;20284;-14
2022/08/05 08:51:36;;;;;;;3.80;1.75;;;;;;;;;;5051017;28;20693;-14
2022/08/05 08:54:24;;;;;;;3.95;1.90;;;;;;;;;;5051387;28;20230;-14
2022/08/05 08:56:53;;;;;;;2.47;1.60;;;;;;;;;;5050924;28;20320;-14
2022/08/05 08:59:22;;;;;;;3.95;1.75;;;;;;;;;;5050126;28;20238;-14
2022/08/05 09:01:59;;;;;;;2.00;1.52;;;;;;;;;;5052877;28;20240;-14
2022/08/05 09:04:27;;;;;;;4.88;1.80;;;;;;;;;;5050700;28;20784;-14
2022/08/05 09:06:57;;;;;;;3.20;1.85;;;;;;;;;;5051081;28;20261;-14
2022/08/05 09:09:26;;;;;;;4.07;1.88;;;;;;;;;;5050103;28;20226;-14
2022/08/05 09:12:02;;;;;;;4.43;1.50;;;;;;;;;;5050839;28;20701;-14
2022/08/05 09:14:46;;;;;;;3.33;1.70;;;;;;;;;;5051149;28;20352;-14
2022/08/05 09:17:31;;;;;;;3.65;1.55;;;;;;;;;;5046124;28;20241;-14
2022/08/05 09:20:10;;;;;;;3.90;1.58;;;;;;;;;;5049496;28;20296;-14
2022/08/05 09:22:56;;;;;;;4.32;1.33;;;;;;;;;;5050165;28;20238;-14
2022/08/05 09:25:33;;;;;;;2.22;1.50;;;;;;;;;;5050892;28;20226;-14
2022/08/05 09:28:22;;;;;;;2.45;1.52;;;;;;;;;;5050718;28;20234;-14
2022/08/05 09:30:53;;;;;;;4.57;1.50;;;;;;;;;;5050353;28;20318;-14
2022/08/05 09:33:22;;;;;;;2.80;1.27;;;;;;;;;;5050413;28;20241;-14
2022/08/05 09:36:01;;;;;;;3.20;1.52;;;;;;;;;;5050681;28;20288;-14
2022/08/05 09:38:55;;;;;;;3.47;1.58;;;;;;;;;;5038058;28;20261;-14
2022/08/05 09:41:25;;;;;;;2.45;1.50;;;;;;;;;;5062548;28;20229;-14
2022/08/05 09:43:59;;;;;;;3.20;1.60;;;;;;;;;;5050464;28;20230;-14
2022/08/05 09:46:26;;;;;;;2.17;1.10;;;;;;;;;;5060252;28;20229;-14
2022/08/05 09:48:55;;;;;;;4.28;1.30;;;;;;;;;;5050344;28;20288;-14
2022/08/05 09:51:42;;;;;;;2.35;1.50;;;;;;;;;;5050321;28;20238;-14
2022/08/05 09:54:15;;;;;;;3.35;1.50;;;;;;;;;;5057234;28;20222;-14
2022/08/05 09:56:49;;;;;;;3.58;1.30;;;;;;;;;;5050075;28;20315;-14
2022/08/05 09:59:18;;;;;;;1.65;1.08;;;;;;;;;;5050221;28;20230;-14
2022/08/05 10:01:46;;;;;;;3.80;1.10;;;;;;;;;;5052259;28;20242;-14
2022/08/05 10:04:31;;;;;;;1.17;0.88;;;;;;;;;;5049523;28;20320;-14
2022/08/05 10:07:01;;;;;;;3.60;1.30;;;;;;;;;;5050256;28;20237;-14
2022/08/05 10:09:53;;;;;;;2.28;1.17;;;;;;;;;;5050186;28;20238;-14
2022/08/05 10:12:43;;;;;;;1.90;1.25;;;;;;;;;;5050022;28;20244;-14
2022/08/05 10:15:17;;;;;;;2.50;1.10;;;;;;;;;;5051086;28;20606;-14
2022/08/05 10:18:02;;;;;;;2.30;1.20;;;;;;;;;;5052744;28;20242;-14
2022/08/05 10:20:30;;;;;;;1.60;1.10;;;;;;;;;;5049921;28;20233;-14
2022/08/05 10:22:59;;;;;;;1.27;0.90;;;;;;;;;;5048420;28;20256;-14
2022/08/05 10:25:27;;;;;;;3.10;1.10;;;;;;;;;;5049455;28;20235;-14
2022/08/05 10:27:56;;;;;;;1.63;0.98;;;;;;;;;;5049901;28;20226;-14
2022/08/05 10:30:43;;;;;;;1.35;0.90;;;;;;;;;;5055149;28;20237;-14
2022/08/05 10:33:31;;;;;;;3.08;0.90;;;;;;;;;;5037229;28;20226;-14
2022/08/05 10:36:03;;;;;;;1.23;0.70;;;;;;;;;;5050053;28;20276;-16
2022/08/05 10:38:30;;;;;;;1.88;1.00;;;;;;;;;;5049010;28;20248;-14
2022/08/05 10:41:02;;;;;;;1.83;0.95;;;;;;;;;;5050240;28;20233;-14
2022/08/05 10:43:33;;;;;;;2.90;0.77;;;;;;;;;;5049570;28;20321;-14
2022/08/05 10:46:03;;;;;;;1.35;0.90;;;;;;;;;;5057783;28;20313;-14
2022/08/05 10:48:34;;;;;;;1.52;0.75;;;;;;;;;;5050114;28;20268;-14
2022/08/05 10:51:19;;;;;;;1.92;0.60;;;;;;;;;;5049585;28;20238;-14
2022/08/05 10:53:52;;;;;;;2.30;0.90;;;;;;;;;;5051410;28;20725;-14
2022/08/05 10:56:21;;;;;;;0.90;0.68;;;;;;;;;;5053091;28;20230;-14
2022/08/05 10:59:04;;;;;;;3.25;0.80;;;;;;;;;;5052493;28;20245;-14
2022/08/05 11:01:53;;;;;;;2.10;0.88;;;;;;;;;;5055179;28;20716;-14
2022/08/05 11:04:31;;;;;;;0.88;0.60;;;;;;;;;;5053372;28;20261;-14
2022/08/05 11:07:05;;;;;;;1.88;0.85;;;;;;;;;;5052757;28;20235;-14
2022/08/05 11:09:39;;;;;;;2.53;1.38;;;;;;;;;;5052187;28;20230;-14
2022/08/05 11:12:41;;;;;;;0.95;0.35;;;;;;;;;;5052780;28;20325;-14
2022/08/05 11:15:10;;;;;;;2.75;0.70;;;;;;;;;;5043149;28;20328;-14
2022/08/05 11:17:47;;;;;;;2.92;0.70;;;;;;;;;;5054962;28;20739;-14
2022/08/05 11:20:42;;;;;;;4.93;0.60;;;;;;;;;;5052172;28;20597;-14
2022/08/05 11:23:27;;;;;;;2.42;0.70;;;;;;;;;;5060012;28;20242;-14
2022/08/05 11:26:00;;;;;;;2.00;0.60;;;;;;;;;;5052899;28;20660;-14
2022/08/05 11:28:38;;;;;;;1.42;0.40;;;;;;;;;;5052409;28;20225;-14
2022/08/05 11:31:26;;;;;;;0.68;0.35;;;;;;;;;;5059576;28;20763;-14
2022/08/05 11:34:14;;;;;;;1.52;0.50;;;;;;;;;;5045477;28;20235;-14
2022/08/05 11:36:49;;;;;;;1.38;0.50;;;;;;;;;;5052469;28;20252;-14
2022/08/05 11:39:38;;;;;;;1.35;0.50;;;;;;;;;;5052468;28;20245;-14
2022/08/05 11:42:14;;;;;;;0.63;0.30;;;;;;;;;;5040735;28;20990;-14
2022/08/05 11:44:44;;;;;;;2.00;0.50;;;;;;;;;;5051985;28;20237;-14
2022/08/05 11:47:22;;;;;;;1.58;0.50;;;;;;;;;;5062212;28;20278;-14
2022/08/05 11:50:10;;;;;;;5.13;0.77;;;;;;;;;;5052754;28;20229;-14
2022/08/05 11:52:40;;;;;;;1.08;0.43;;;;;;;;;;5052007;28;20226;-14
2022/08/05 11:55:12;;;;;;;3.70;0.57;;;;;;;;;;5064711;28;20234;-14
2022/08/05 11:57:39;;;;;;;1.52;0.50;;;;;;;;;;5051877;28;20230;-14
2022/08/05 12:00:27;;;;;;;2.35;0.50;;;;;;;;;;5054038;28;20244;-14
2022/08/05 12:02:56;;;;;;;2.17;0.60;;;;;;;;;;5052083;28;20328;-14
2022/08/05 12:05:27;;;;;;;0.73;0.50;;;;;;;;;;5050925;28;20743;-14
2022/08/05 12:08:06;;;;;;;0.85;0.40;;;;;;;;;;5039576;28;20238;-14
2022/08/05 12:10:38;;;;;;;3.35;0.40;;;;;;;;;;5052068;28;20244;-14
2022/08/05 12:13:13;;;;;;;1.33;0.50;;;;;;;;;;5052096;28;20233;-14
2022/08/05 12:15:45;;;;;;;1.60;0.40;;;;;;;;;;5054957;28;20233;-14
2022/08/05 12:18:18;;;;;;;2.47;0.30;;;;;;;;;;5051475;28;20305;-14
2022/08/05 12:20:50;;;;;;;1.15;0.50;;;;;;;;;;5051317;28;20723;-14
2022/08/05 12:23:17;;;;;;;0.60;0.40;;;;;;;;;;5051114;28;20264;-14
2022/08/05 12:25:48;;;;;;;2.35;0.50;;;;;;;;;;5051947;28;20241;-14
2022/08/05 12:28:29;;;;;;;1.45;0.43;;;;;;;;;;5050575;28;20226;-14
2022/08/05 12:30:57;;;;;;;1.98;0.40;;;;;;;;;;5051479;28;20234;-14
2022/08/05 12:33:30;;;;;;;0.63;0.40;;;;;;;;;;5051792;28;20230;-14
2022/08/05 12:36:05;;;;;;;0.57;0.35;;;;;;;;;;5051784;28;20619;-14
2022/08/05 12:38:36;;;;;;;1.23;0.60;;;;;;;;;;5050079;28;20237;-14
2022/08/05 12:41:03;;;;;;;1.45;0.60;;;;;;;;;;5051300;28;20233;-14
2022/08/05 12:43:30;;;;;;;0.45;0.30;;;;;;;;;;5051133;28;21052;-14
2022/08/05 12:45:58;;;;;;;0.95;0.40;;;;;;;;;;5058380;28;20232;-14
2022/08/05 12:48:26;;;;;;;2.80;0.47;;;;;;;;;;5052552;28;20226;-14
2022/08/05 12:51:10;;;;;;;1.65;0.40;;;;;;;;;;5051106;28;20234;-14
2022/08/05 12:53:58;;;;;;;2.25;0.50;;;;;;;;;;5051267;28;20248;-14
2022/08/05 12:56:25;;;;;;;1.88;0.50;;;;;;;;;;5051275;28;20386;-14
2022/08/05 12:59:13;;;;;;;2.72;0.40;;;;;;;;;;5051157;28;20717;-14
2022/08/05 13:01:54;;;;;;;1.10;0.40;;;;;;;;;;5046889;28;20767;-14
2022/08/05 13:04:32;;;;;;;2.65;0.43;;;;;;;;;;5050813;28;20944;-14
2022/08/05 13:07:11;;;;;;;0.88;0.43;;;;;;;;;;5050797;28;20335;-14
2022/08/05 13:09:47;;;;;;;1.33;0.40;;;;;;;;;;5051308;28;20229;-14
2022/08/05 13:12:23;;;;;;;3.33;0.57;;;;;;;;;;5053160;28;20308;-14
2022/08/05 13:14:56;;;;;;;0.75;0.30;;;;;;;;;;5050341;28;21153;-14
2022/08/05 13:17:33;;;;;;;1.40;0.50;;;;;;;;;;5049322;28;20226;-14
2022/08/05 13:20:09;;;;;;;1.75;0.40;;;;;;;;;;5050416;28;20242;-14
2022/08/05 13:22:40;;;;;;;1.58;0.43;;;;;;;;;;5051084;28;20281;-14
2022/08/05 13:25:09;;;;;;;0.77;0.30;;;;;;;;;;5062569;28;20234;-14
2022/08/05 13:27:48;;;;;;;1.75;0.50;;;;;;;;;;5050478;28;20288;-14
2022/08/05 13:30:17;;;;;;;3.40;0.40;;;;;;;;;;5051986;28;20326;-14
2022/08/05 13:33:02;;;;;;;2.05;0.40;;;;;;;;;;5052952;28;20735;-14
2022/08/05 13:35:30;;;;;;;1.63;0.40;;;;;;;;;;5050401;28;20265;-14
2022/08/05 13:38:18;;;;;;;2.70;0.50;;;;;;;;;;5050482;28;20245;-14
2022/08/05 13:41:02;;;;;;;2.83;0.50;;;;;;;;;;5050553;28;20241;-14
2022/08/05 13:43:29;;;;;;;2.25;0.60;;;;;;;;;;5050100;28;20285;-14
2022/08/05 13:46:17;;;;;;;2.05;0.40;;;;;;;;;;5060669;28;20240;-14
2022/08/05 13:49:04;;;;;;;1.08;0.38;;;;;;;;;;5050313;28;20263;-14
2022/08/05 13:51:36;;;;;;;0.43;0.32;;;;;;;;;;5050440;28;20261;-14
2022/08/05 13:54:08;;;;;;;1.70;0.40;;;;;;;;;;5049841;28;20238;-14
2022/08/05 13:56:39;;;;;;;0.93;0.40;;;;;;;;;;5045733;28;20230;-14
2022/08/05 13:59:16;;;;;;;2.25;0.40;;;;;;;;;;5049519;28;20701;-14
2022/08/05 14:01:47;;;;;;;1.02;0.35;;;;;;;;;;5050273;28;20258;-14
2022/08/05 14:07:17;;;;;;;1.33;0.50;;;;;;;;;;5049775;28;20245;-14
2022/08/05 14:10:06;;;;;;;2.67;0.40;;;;;;;;;;5050067;28;20233;-14
2022/08/05 14:12:34;;;;;;;1.35;0.40;;;;;;;;;;5049828;28;20608;-14
2022/08/05 14:15:02;;;;;;;1.35;0.40;;;;;;;;;;5049476;28;20316;-14
2022/08/05 14:17:32;;;;;;;1.58;0.35;;;;;;;;;;5059377;28;20240;-14
2022/08/05 14:20:00;;;;;;;1.40;0.38;;;;;;;;;;5049713;28;20277;-14
2022/08/05 14:22:34;;;;;;;0.70;0.30;;;;;;;;;;5049654;28;20246;-14
2022/08/05 14:25:02;;;;;;;1.73;0.40;;;;;;;;;;5049745;28;20685;-14
2022/08/05 14:27:47;;;;;;;1.23;0.40;;;;;;;;;;5049921;28;20241;-14
2022/08/05 14:30:14;;;;;;;0.77;0.40;;;;;;;;;;5055043;28;20237;-14
2022/08/05 14:32:47;;;;;;;1.58;0.30;;;;;;;;;;5058234;28;20233;-14
2022/08/05 14:35:15;;;;;;;1.70;0.38;;;;;;;;;;5053797;28;20244;-16
2022/08/05 14:37:47;;;;;;;3.20;0.60;;;;;;;;;;5053434;28;20236;-15
2022/08/05 14:40:21;;;;;;;2.40;0.50;;;;;;;;;;5052503;28;20236;-16
2022/08/05 14:42:52;;;;;;;3.92;0.30;;;;;;;;;;5053304;28;20618;-16
2022/08/05 14:45:22;;;;;;;0.85;0.30;;;;;;;;;;5055381;28;20229;-14
2022/08/05 14:47:49;;;;;;;3.72;0.50;;;;;;;;;;5060685;28;20265;-16
2022/08/05 14:50:32;;;;;;;1.88;0.75;;;;;;;;;;5055701;28;20244;-15
2022/08/05 14:53:06;;;;;;;1.10;0.60;;;;;;;;;;5059123;28;20238;-16
2022/08/05 14:55:33;;;;;;;1.90;0.30;;;;;;;;;;5052678;28;20660;-16
2022/08/05 14:58:07;;;;;;;1.40;0.30;;;;;;;;;;5052817;28;20264;-16
2022/08/05 15:00:40;;;;;;;1.98;0.60;;;;;;;;;;5052177;28;20324;-16
2022/08/05 15:03:25;;;;;;;2.60;0.52;;;;;;;;;;5052627;28;20245;-16
2022/08/05 15:05:52;;;;;;;3.33;0.45;;;;;;;;;;5052354;28;20313;-15
2022/08/05 15:08:34;;;;;;;3.08;0.82;;;;;;;;;;5052996;28;20317;-15
2022/08/05 15:11:22;;;;;;;0.47;0.30;;;;;;;;;;5039146;28;20625;-15
2022/08/05 15:14:11;;;;;;;1.45;0.40;;;;;;;;;;5052851;28;20241;-15
2022/08/05 15:17:01;;;;;;;1.20;0.50;;;;;;;;;;5058153;28;20237;-16
2022/08/05 15:19:30;;;;;;;2.38;0.35;;;;;;;;;;5052657;28;20230;-16
2022/08/05 15:21:59;;;;;;;0.75;0.30;;;;;;;;;;5052024;28;20245;-16
2022/08/05 15:24:27;;;;;;;0.85;0.40;;;;;;;;;;5051760;28;20635;-16
2022/08/05 15:26:54;;;;;;;0.90;0.40;;;;;;;;;;5052482;28;20256;-15
2022/08/05 15:29:24;;;;;;;1.40;0.30;;;;;;;;;;5052521;28;20226;-16
2022/08/05 15:31:56;;;;;;;0.40;0.30;;;;;;;;;;5059767;28;20368;-16
2022/08/05 15:34:33;;;;;;;1.38;0.40;;;;;;;;;;5051529;28;20261;-14